Time;durP1;ratioP1;P1;durP2;ratioP2;P2;SDS_P1;SDS_P2;PMS_P1;PMS_P2;Temp;Humidity;BMP_temperature;BMP_pressure;BME280_temperature;BME280_humidity;BME280_pressure;Samples;Min_cycle;Max_cycle;Signal;HPM_P1;HPM_P2
2023/01/06 00:00:25;;;;;;;8.33;3.70;;;9.40;99.90;;;;;;5051127;28;20267;-59
2023/01/06 00:02:50;;;;;;;10.43;3.73;;;9.40;99.90;;;;;;5050919;28;20224;-59
2023/01/06 00:05:16;;;;;;;8.40;3.33;;;9.50;99.90;;;;;;5053307;28;20195;-57
2023/01/06 00:07:43;;;;;;;7.97;3.07;;;9.40;99.90;;;;;;5055102;28;20175;-58
2023/01/06 00:10:09;;;;;;;7.63;3.27;;;9.60;99.90;;;;;;5055151;28;20205;-58
2023/01/06 00:12:36;;;;;;;9.13;3.70;;;9.80;99.90;;;;;;5054940;28;20280;-57
2023/01/06 00:15:01;;;;;;;9.40;3.30;;;9.90;99.90;;;;;;5054654;28;20191;-59
2023/01/06 00:17:27;;;;;;;7.60;2.97;;;10.00;99.90;;;;;;5054988;28;20167;-57
2023/01/06 00:19:52;;;;;;;10.67;3.67;;;10.10;99.90;;;;;;5054992;28;20171;-59
2023/01/06 00:22:18;;;;;;;9.27;3.67;;;10.10;99.90;;;;;;5054952;28;20237;-57
2023/01/06 00:24:44;;;;;;;6.90;3.27;;;10.10;99.90;;;;;;5054250;28;20213;-58
2023/01/06 00:27:09;;;;;;;10.33;3.60;;;10.10;99.90;;;;;;5054858;28;20194;-59
2023/01/06 00:29:35;;;;;;;7.77;3.47;;;10.20;99.90;;;;;;5054847;28;20246;-60
2023/01/06 00:32:01;;;;;;;10.80;3.67;;;10.30;99.90;;;;;;5054672;28;20282;-60
2023/01/06 00:34:28;;;;;;;9.03;3.40;;;10.50;99.90;;;;;;5054235;28;20191;-60
2023/01/06 00:36:53;;;;;;;8.23;3.87;;;10.60;99.90;;;;;;5054647;28;20202;-59
2023/01/06 00:39:19;;;;;;;6.70;2.70;;;10.60;99.90;;;;;;5054528;28;20245;-59
2023/01/06 00:42:03;;;;;;;10.53;4.00;;;10.50;99.90;;;;;;5054601;28;20175;-59
2023/01/06 00:44:34;;;;;;;9.67;3.33;;;10.40;99.90;;;;;;5054146;28;20244;-60
2023/01/06 00:47:01;;;;;;;10.43;3.83;;;10.30;99.90;;;;;;5054365;28;20178;-60
2023/01/06 00:49:27;;;;;;;7.60;3.63;;;10.20;99.90;;;;;;5054431;28;20183;-58
2023/01/06 00:51:53;;;;;;;11.27;4.27;;;10.20;99.90;;;;;;5054314;28;20194;-57
2023/01/06 00:54:19;;;;;;;11.07;3.53;;;10.20;99.90;;;;;;5053900;28;20198;-60
2023/01/06 00:56:46;;;;;;;7.53;3.40;;;10.30;99.90;;;;;;5054287;28;20198;-60
2023/01/06 00:59:14;;;;;;;8.47;3.50;;;10.30;99.90;;;;;;5054333;28;20687;-59
2023/01/06 01:01:40;;;;;;;5.97;2.83;;;10.40;99.90;;;;;;5054158;28;20179;-60
2023/01/06 01:04:06;;;;;;;9.17;3.37;;;11.00;99.90;;;;;;5053871;28;20225;-60
2023/01/06 01:06:32;;;;;;;9.80;3.50;;;10.40;99.90;;;;;;5054002;28;20175;-58
2023/01/06 01:08:59;;;;;;;8.90;3.53;;;10.20;99.90;;;;;;5054152;28;20164;-58
2023/01/06 01:14:11;;;;;;;9.17;3.40;;;10.50;99.90;;;;;;5054000;28;20258;-57
2023/01/06 01:16:38;;;;;;;9.43;3.40;;;10.60;99.90;;;;;;5053082;28;20164;-55
2023/01/06 01:19:04;;;;;;;9.30;3.77;;;10.60;99.90;;;;;;5053855;28;20171;-57
2023/01/06 01:21:30;;;;;;;12.27;4.17;;;10.70;99.90;;;;;;5053688;28;20248;-59
2023/01/06 01:23:55;;;;;;;9.67;3.63;;;10.70;99.90;;;;;;5053467;28;20194;-57
2023/01/06 01:26:21;;;;;;;6.23;3.40;;;10.70;99.90;;;;;;5053681;28;20182;-58
2023/01/06 01:28:46;;;;;;;8.57;3.50;;;10.70;99.90;;;;;;5053870;28;20220;-57
2023/01/06 01:31:14;;;;;;;6.30;3.40;;;10.70;99.90;;;;;;5053624;28;20214;-60
2023/01/06 01:33:40;;;;;;;9.57;3.80;;;10.80;99.90;;;;;;5053187;28;20211;-58
2023/01/06 01:36:14;;;;;;;8.83;3.77;;;10.80;99.90;;;;;;5053492;28;20301;-57
2023/01/06 01:38:39;;;;;;;7.00;3.23;;;10.90;99.90;;;;;;5053664;28;20595;-58
2023/01/06 01:41:05;;;;;;;8.80;4.17;;;10.90;99.90;;;;;;5053521;28;20227;-59
2023/01/06 01:43:51;;;;;;;7.77;3.50;;;10.80;99.90;;;;;;5053161;28;20640;-59
2023/01/06 01:46:32;;;;;;;10.90;4.07;;;10.80;99.90;;;;;;5053763;28;20199;-57
2023/01/06 01:49:05;;;;;;;8.70;3.70;;;10.80;99.90;;;;;;5053278;28;20305;-57
2023/01/06 01:51:36;;;;;;;10.67;4.23;;;10.80;99.90;;;;;;5053363;28;20171;-58
2023/01/06 01:54:06;;;;;;;9.17;3.50;;;10.80;99.90;;;;;;5052859;28;20175;-58
2023/01/06 01:56:35;;;;;;;7.73;3.00;;;10.90;99.90;;;;;;5053199;28;20575;-57
2023/01/06 01:59:08;;;;;;;9.90;3.73;;;11.70;99.90;;;;;;5053021;28;20177;-58
2023/01/06 02:01:34;;;;;;;9.27;3.17;;;10.80;99.90;;;;;;5053118;28;20732;-57
2023/01/06 02:04:01;;;;;;;9.73;3.77;;;10.80;99.90;;;;;;5052655;28;20206;-54
2023/01/06 02:06:27;;;;;;;9.50;4.13;;;10.80;99.90;;;;;;5052995;28;20175;-60
2023/01/06 02:09:05;;;;;;;6.23;2.70;;;10.90;99.90;;;;;;5052849;28;20179;-58
2023/01/06 02:11:32;;;;;;;10.13;3.87;;;10.90;99.90;;;;;;5052908;28;20636;-56
2023/01/06 02:14:13;;;;;;;9.23;4.40;;;11.00;99.90;;;;;;5052444;28;20197;-57
2023/01/06 02:17:03;;;;;;;12.13;3.80;;;11.00;99.90;;;;;;5052867;28;20175;-53
2023/01/06 02:19:50;;;;;;;9.33;4.03;;;10.90;99.90;;;;;;5052694;28;20195;-53
2023/01/06 02:22:36;;;;;;;8.10;3.53;;;10.90;99.90;;;;;;5052938;28;20194;-56
2023/01/06 02:25:05;;;;;;;7.47;3.17;;;10.80;99.90;;;;;;5052128;28;20210;-58
2023/01/06 02:27:54;;;;;;;5.97;3.57;;;10.80;99.90;;;;;;5051880;28;20187;-58
2023/01/06 02:30:49;;;;;;;8.13;3.30;;;10.80;99.90;;;;;;4990799;28;20742;-56
2023/01/06 02:33:27;;;;;;;8.00;3.63;;;10.80;99.90;;;;;;4990986;28;20689;-56
2023/01/06 02:35:58;;;;;;;10.83;4.23;;;10.90;99.90;;;;;;4990490;28;20201;-57
2023/01/06 02:38:43;;;;;;;12.07;3.93;;;10.80;99.90;;;;;;4990913;28;20169;-57
2023/01/06 02:41:28;;;;;;;7.47;3.80;;;10.90;99.90;;;;;;4990741;28;20288;-59
2023/01/06 02:44:08;;;;;;;10.30;3.63;;;10.80;99.90;;;;;;4990357;28;20169;-58
2023/01/06 02:46:57;;;;;;;9.10;3.90;;;10.70;99.90;;;;;;4990528;28;20181;-54
2023/01/06 02:49:26;;;;;;;8.77;3.80;;;10.70;99.90;;;;;;4990722;28;20542;-57
2023/01/06 02:52:00;;;;;;;8.67;4.10;;;10.60;99.90;;;;;;4990455;28;20287;-56
2023/01/06 02:54:48;;;;;;;13.23;4.57;;;10.60;99.90;;;;;;4990206;28;20209;-59
2023/01/06 02:57:22;;;;;;;9.27;3.73;;;10.60;99.90;;;;;;4990416;28;20261;-57
2023/01/06 03:00:17;;;;;;;6.70;3.57;;;10.50;99.90;;;;;;4990416;28;20212;-58
2023/01/06 03:02:49;;;;;;;7.37;3.60;;;10.50;99.90;;;;;;4913422;29;20192;-57
2023/01/06 03:05:16;;;;;;;11.63;4.03;;;10.50;99.90;;;;;;4913089;29;20208;-57
2023/01/06 03:07:44;;;;;;;10.97;4.20;;;10.60;99.90;;;;;;4949531;28;20273;-57
2023/01/06 03:10:12;;;;;;;9.73;3.83;;;10.70;99.90;;;;;;4970929;28;20185;-56
2023/01/06 03:12:41;;;;;;;11.07;4.00;;;10.70;99.90;;;;;;4970600;28;20209;-54
2023/01/06 03:15:08;;;;;;;10.67;3.83;;;10.80;99.90;;;;;;4970325;28;20272;-57
2023/01/06 03:17:34;;;;;;;7.77;3.97;;;10.80;99.90;;;;;;4970611;28;20564;-56
2023/01/06 03:19:59;;;;;;;9.80;3.40;;;10.80;99.90;;;;;;4970622;28;20197;-56
2023/01/06 03:22:26;;;;;;;10.40;4.37;;;10.80;99.90;;;;;;4970587;28;20212;-59
2023/01/06 03:24:53;;;;;;;13.67;4.53;;;10.70;99.90;;;;;;4970032;28;20328;-58
2023/01/06 03:27:22;;;;;;;11.80;4.63;;;10.60;99.90;;;;;;4970428;28;20281;-59
2023/01/06 03:29:47;;;;;;;10.33;4.20;;;10.50;99.90;;;;;;4970542;28;20197;-58
2023/01/06 03:32:21;;;;;;;8.63;3.77;;;10.50;99.90;;;;;;4970296;28;20734;-58
2023/01/06 03:34:58;;;;;;;8.47;4.13;;;10.40;99.90;;;;;;4970138;28;20213;-57
2023/01/06 03:37:42;;;;;;;8.90;4.80;;;10.30;99.90;;;;;;4970398;28;20177;-57
2023/01/06 03:40:29;;;;;;;9.27;4.13;;;10.30;99.90;;;;;;5026497;28;20179;-57
2023/01/06 03:43:11;;;;;;;7.93;4.23;;;10.30;99.90;;;;;;5051040;28;20709;-57
2023/01/06 03:45:55;;;;;;;12.20;4.97;;;10.30;99.90;;;;;;5050944;28;20191;-57
2023/01/06 03:48:26;;;;;;;8.83;4.37;;;10.30;99.90;;;;;;5051220;28;20354;-57
2023/01/06 03:51:04;;;;;;;7.60;4.60;;;10.20;99.90;;;;;;5051193;28;20171;-57
2023/01/06 03:53:44;;;;;;;9.70;4.00;;;10.20;99.90;;;;;;5050887;28;20214;-58
2023/01/06 03:56:10;;;;;;;8.83;4.20;;;10.30;99.90;;;;;;5051086;28;20256;-57
2023/01/06 03:58:37;;;;;;;6.07;3.80;;;10.30;99.90;;;;;;5051000;28;20167;-58
2023/01/06 04:01:04;;;;;;;6.90;3.80;;;10.30;99.90;;;;;;5051133;28;20644;-54
2023/01/06 04:03:30;;;;;;;7.07;4.50;;;10.40;99.90;;;;;;5050825;28;20167;-59
2023/01/06 04:05:55;;;;;;;6.13;3.83;;;10.40;99.90;;;;;;5050615;28;20191;-55
2023/01/06 04:08:21;;;;;;;8.43;4.00;;;10.50;99.90;;;;;;5051093;28;20166;-58
2023/01/06 04:10:47;;;;;;;5.67;4.37;;;10.50;99.90;;;;;;5051018;28;20183;-56
2023/01/06 04:13:12;;;;;;;9.33;4.93;;;10.60;99.90;;;;;;5050926;28;20636;-58
2023/01/06 04:15:38;;;;;;;9.70;5.00;;;10.60;99.90;;;;;;5050510;28;20194;-57
2023/01/06 04:18:03;;;;;;;9.90;4.50;;;10.60;99.90;;;;;;5050988;28;20250;-54
2023/01/06 04:20:29;;;;;;;9.40;5.40;;;10.70;99.90;;;;;;5050791;28;20178;-58
2023/01/06 04:22:56;;;;;;;11.27;5.97;;;10.70;99.90;;;;;;5050905;28;20205;-59
2023/01/06 04:25:22;;;;;;;11.90;5.33;;;10.80;99.90;;;;;;5050288;28;20259;-59
2023/01/06 04:27:48;;;;;;;8.03;5.10;;;10.80;99.90;;;;;;5050867;28;20191;-58
2023/01/06 04:30:14;;;;;;;8.20;4.93;;;10.80;99.90;;;;;;5050717;28;20244;-55
2023/01/06 04:32:40;;;;;;;11.43;5.27;;;10.90;99.90;;;;;;5050734;28;20198;-58
2023/01/06 04:35:06;;;;;;;10.00;4.87;;;10.80;99.90;;;;;;5050318;28;20563;-57
2023/01/06 04:37:33;;;;;;;7.03;4.60;;;10.70;99.90;;;;;;5050641;28;20194;-59
2023/01/06 04:39:58;;;;;;;9.00;4.77;;;10.70;99.90;;;;;;5050828;28;20540;-59
2023/01/06 04:42:24;;;;;;;8.40;4.40;;;10.70;99.90;;;;;;5050572;28;20197;-59
2023/01/06 04:44:49;;;;;;;10.93;5.37;;;10.70;99.90;;;;;;5050305;28;20287;-55
2023/01/06 04:47:15;;;;;;;10.73;5.13;;;10.80;99.90;;;;;;5050597;28;20190;-59
2023/01/06 04:49:40;;;;;;;9.00;4.90;;;11.90;99.90;;;;;;5050586;28;20301;-58
2023/01/06 04:52:07;;;;;;;8.70;5.23;;;10.80;99.90;;;;;;5052608;28;20195;-59
2023/01/06 04:54:33;;;;;;;11.83;5.43;;;10.80;99.90;;;;;;5054036;28;20190;-60
2023/01/06 04:56:59;;;;;;;13.93;5.80;;;10.80;99.90;;;;;;5054121;28;20195;-59
2023/01/06 04:59:25;;;;;;;8.93;5.13;;;10.90;99.90;;;;;;5054341;28;20275;-56
2023/01/06 05:01:50;;;;;;;8.07;5.57;;;10.90;99.90;;;;;;5054068;28;20213;-58
2023/01/06 05:04:16;;;;;;;9.43;5.30;;;10.90;99.90;;;;;;5053847;28;20187;-60
2023/01/06 05:06:41;;;;;;;9.50;5.80;;;10.90;99.90;;;;;;5054149;28;20194;-60
2023/01/06 05:09:07;;;;;;;9.10;5.00;;;10.90;99.90;;;;;;5054014;28;20547;-60
2023/01/06 05:11:33;;;;;;;7.87;5.03;;;10.90;99.90;;;;;;5053986;28;20586;-58
2023/01/06 05:13:58;;;;;;;12.17;5.70;;;11.00;99.90;;;;;;5053561;28;20171;-60
2023/01/06 05:16:24;;;;;;;10.10;5.87;;;10.90;99.90;;;;;;5053904;28;20258;-60
2023/01/06 05:18:50;;;;;;;12.30;6.00;;;11.00;99.90;;;;;;5053802;28;20543;-59
2023/01/06 05:21:16;;;;;;;10.43;5.60;;;11.00;99.90;;;;;;5053877;28;20189;-59
2023/01/06 05:23:42;;;;;;;10.13;5.27;;;11.00;99.90;;;;;;5053450;28;20187;-59
2023/01/06 05:26:14;;;;;;;11.60;6.30;;;12.90;99.90;;;;;;5186192;22;20253;-48
2023/01/06 05:28:39;;;;;;;13.47;5.57;;;10.90;99.90;;;;;;5073660;28;20205;-52
2023/01/06 05:31:05;;;;;;;9.27;5.60;;;12.50;99.90;;;;;;5074051;28;20205;-52
2023/01/06 05:33:32;;;;;;;12.00;5.93;;;10.90;99.90;;;;;;5073704;28;20209;-50
2023/01/06 05:35:58;;;;;;;11.00;5.30;;;13.10;99.90;;;;;;5073659;28;20187;-50
2023/01/06 05:38:24;;;;;;;12.40;5.90;;;10.90;99.90;;;;;;5074228;28;20643;-48
2023/01/06 05:40:50;;;;;;;10.67;5.77;;;10.90;99.90;;;;;;5073832;28;20225;-51
2023/01/06 05:43:16;;;;;;;10.53;5.73;;;11.80;99.90;;;;;;5073692;28;20182;-49
2023/01/06 05:45:41;;;;;;;10.67;5.90;;;10.90;99.90;;;;;;5073262;28;20198;-48
2023/01/06 05:48:07;;;;;;;12.13;6.33;;;12.40;99.90;;;;;;5073775;28;20170;-48
2023/01/06 05:50:32;;;;;;;10.03;6.17;;;11.00;99.90;;;;;;5073556;28;20167;-48
2023/01/06 05:52:58;;;;;;;11.13;7.70;;;11.10;99.90;;;;;;5073522;28;20200;-50
2023/01/06 05:55:23;;;;;;;23.27;18.80;;;11.00;99.90;;;;;;5072956;28;20274;-46
2023/01/06 05:57:49;;;;;;;14.10;9.40;;;10.90;99.90;;;;;;5073458;28;20212;-49
2023/01/06 06:00:15;;;;;;;9.60;6.60;;;10.90;99.90;;;;;;5073390;28;20224;-51
2023/01/06 06:02:40;;;;;;;12.90;6.60;;;10.90;99.90;;;;;;5073283;28;20170;-49
2023/01/06 06:05:06;;;;;;;10.63;6.00;;;11.00;99.90;;;;;;5072927;28;20195;-51
2023/01/06 06:07:32;;;;;;;10.27;5.67;;;11.00;99.90;;;;;;5073297;28;20217;-49
2023/01/06 06:09:57;;;;;;;11.57;6.30;;;11.00;99.90;;;;;;5073213;28;20183;-51
2023/01/06 06:12:23;;;;;;;13.33;6.37;;;11.00;99.90;;;;;;5073168;28;20194;-50
2023/01/06 06:14:49;;;;;;;11.37;5.90;;;11.00;99.90;;;;;;5072862;28;20552;-50
2023/01/06 06:17:14;;;;;;;14.20;5.47;;;11.10;99.90;;;;;;5073114;28;20605;-49
2023/01/06 06:19:40;;;;;;;9.43;5.67;;;11.10;99.90;;;;;;5073113;28;20158;-50
2023/01/06 06:22:06;;;;;;;10.20;6.10;;;11.10;99.90;;;;;;5072961;28;20223;-52
2023/01/06 06:24:31;;;;;;;10.90;5.80;;;11.10;99.90;;;;;;5072575;28;20249;-49
2023/01/06 06:26:57;;;;;;;8.83;5.47;;;11.10;99.90;;;;;;5072777;28;20181;-50
2023/01/06 06:29:22;;;;;;;10.73;5.37;;;11.20;99.90;;;;;;5072944;28;20170;-51
2023/01/06 06:31:48;;;;;;;12.07;6.97;;;11.20;99.90;;;;;;5072676;28;20308;-49
2023/01/06 06:34:13;;;;;;;10.63;5.80;;;11.20;99.90;;;;;;5072569;28;20195;-49
2023/01/06 06:36:39;;;;;;;10.93;6.10;;;11.20;99.90;;;;;;5072318;28;20210;-50
2023/01/06 06:39:04;;;;;;;11.13;5.90;;;11.20;99.90;;;;;;5072716;28;20170;-49
2023/01/06 06:41:30;;;;;;;7.53;5.60;;;11.20;99.90;;;;;;5071877;28;20727;-47
2023/01/06 06:43:55;;;;;;;10.87;5.87;;;11.20;99.90;;;;;;5070503;28;20593;-48
2023/01/06 06:46:22;;;;;;;9.37;5.83;;;11.20;99.90;;;;;;5065349;28;20203;-46
2023/01/06 06:48:48;;;;;;;12.87;6.20;;;11.20;99.90;;;;;;5051710;28;20175;-49
2023/01/06 06:51:17;;;;;;;10.97;5.87;;;11.20;99.90;;;;;;5052520;28;20167;-51
2023/01/06 06:53:44;;;;;;;8.43;5.43;;;11.20;99.90;;;;;;5051614;28;20209;-50
2023/01/06 06:56:10;;;;;;;12.37;5.23;;;11.20;99.90;;;;;;5050909;28;20256;-48
2023/01/06 06:58:36;;;;;;;9.33;5.77;;;11.20;99.90;;;;;;5059318;28;20183;-49
2023/01/06 07:01:03;;;;;;;8.87;5.90;;;11.30;99.90;;;;;;5072442;28;20209;-49
2023/01/06 07:03:29;;;;;;;7.60;5.50;;;11.20;99.90;;;;;;5072091;28;20559;-48
2023/01/06 07:05:55;;;;;;;8.87;5.50;;;11.20;99.90;;;;;;5071447;28;20195;-49
2023/01/06 07:08:20;;;;;;;10.60;6.57;;;11.20;99.90;;;;;;5072175;28;20179;-50
2023/01/06 07:10:46;;;;;;;9.97;6.00;;;11.30;99.90;;;;;;5063579;28;20182;-48
2023/01/06 07:13:12;;;;;;;9.07;5.70;;;11.20;99.90;;;;;;5071726;28;20237;-49
2023/01/06 07:15:37;;;;;;;7.83;5.77;;;11.20;99.90;;;;;;5070740;28;20190;-48
2023/01/06 07:18:04;;;;;;;12.73;5.40;;;11.20;99.90;;;;;;5071969;28;20281;-49
2023/01/06 07:20:31;;;;;;;12.13;6.77;;;11.20;99.90;;;;;;5068565;28;20188;-51
2023/01/06 07:22:56;;;;;;;9.90;6.50;;;11.20;99.90;;;;;;5072006;28;20193;-50
2023/01/06 07:25:22;;;;;;;10.73;8.07;;;11.20;99.90;;;;;;5070997;28;20209;-51
2023/01/06 07:27:56;;;;;;;8.73;6.07;;;11.20;99.90;;;;;;5070119;28;20799;-50
2023/01/06 07:30:23;;;;;;;12.80;6.90;;;11.30;99.90;;;;;;5071272;28;20177;-49
2023/01/06 07:32:49;;;;;;;9.03;6.53;;;11.30;99.90;;;;;;5070098;28;20222;-50
2023/01/06 07:35:14;;;;;;;8.87;6.37;;;11.30;99.90;;;;;;5070487;28;20575;-51
2023/01/06 07:37:40;;;;;;;11.40;7.40;;;11.30;99.90;;;;;;5070386;28;20635;-53
2023/01/06 07:40:06;;;;;;;8.90;6.47;;;11.30;99.90;;;;;;5071205;28;20232;-46
2023/01/06 07:42:33;;;;;;;9.17;6.87;;;12.00;99.90;;;;;;5071177;28;20186;-48
2023/01/06 07:44:59;;;;;;;8.67;6.50;;;11.30;99.90;;;;;;5070415;28;20641;-50
2023/01/06 07:47:24;;;;;;;10.17;8.00;;;11.30;99.90;;;;;;5071470;28;20227;-46
2023/01/06 07:49:50;;;;;;;10.37;6.47;;;11.40;99.90;;;;;;5071070;28;20174;-48
2023/01/06 07:52:15;;;;;;;10.37;6.40;;;11.40;99.90;;;;;;5070919;28;20202;-49
2023/01/06 07:54:41;;;;;;;11.57;6.73;;;11.40;99.90;;;;;;5070518;28;20198;-47
2023/01/06 07:57:06;;;;;;;11.10;6.93;;;11.50;99.90;;;;;;5069283;28;20181;-47
2023/01/06 07:59:32;;;;;;;9.93;6.60;;;11.60;99.90;;;;;;5069176;28;20189;-48
2023/01/06 08:01:57;;;;;;;8.27;6.27;;;11.60;99.90;;;;;;5070599;28;20173;-49
2023/01/06 08:04:23;;;;;;;11.40;7.07;;;11.60;99.90;;;;;;5070881;28;20247;-49
2023/01/06 08:06:48;;;;;;;7.80;5.80;;;11.60;99.90;;;;;;5069572;28;20286;-49
2023/01/06 08:09:14;;;;;;;9.27;6.40;;;11.70;99.90;;;;;;5072534;28;20204;-48
2023/01/06 08:11:40;;;;;;;9.17;6.40;;;13.20;99.90;;;;;;5063943;28;20201;-49
2023/01/06 08:14:05;;;;;;;8.50;5.77;;;11.80;99.90;;;;;;5060678;28;20179;-48
2023/01/06 08:16:31;;;;;;;10.70;6.80;;;11.80;99.90;;;;;;5067097;28;20199;-46
2023/01/06 08:18:56;;;;;;;8.80;6.40;;;11.90;99.90;;;;;;5064502;28;20167;-46
2023/01/06 08:21:22;;;;;;;8.97;6.60;;;11.90;99.90;;;;;;5070401;28;20174;-49
2023/01/06 08:23:48;;;;;;;8.50;6.30;;;11.90;99.90;;;;;;5070634;28;20170;-48
2023/01/06 08:26:16;;;;;;;8.77;7.03;;;11.90;99.90;;;;;;5063979;28;20218;-47
2023/01/06 08:28:44;;;;;;;9.30;7.50;;;12.00;99.90;;;;;;5066382;28;20838;-46
2023/01/06 08:31:22;;;;;;;10.27;7.93;;;11.90;99.90;;;;;;5074677;28;20228;-50
2023/01/06 08:33:49;;;;;;;9.83;8.70;;;12.10;99.90;;;;;;5073486;28;20832;-48
2023/01/06 08:36:19;;;;;;;8.07;6.97;;;12.30;99.90;;;;;;5067429;28;20194;-49
2023/01/06 08:38:45;;;;;;;7.63;6.00;;;12.30;99.90;;;;;;5068231;28;20167;-47
2023/01/06 08:41:11;;;;;;;9.80;5.67;;;12.30;99.90;;;;;;5067460;28;20551;-48
2023/01/06 08:43:39;;;;;;;7.63;5.47;;;12.40;99.90;;;;;;5076740;28;20166;-48
2023/01/06 08:46:07;;;;;;;7.43;5.43;;;12.50;99.90;;;;;;5083716;28;20276;-49
2023/01/06 08:48:34;;;;;;;9.03;5.90;;;12.60;99.90;;;;;;5081203;28;20193;-50
2023/01/06 08:51:10;;;;;;;8.37;5.70;;;12.70;99.90;;;;;;5091133;28;20660;-49
2023/01/06 08:53:36;;;;;;;9.10;5.90;;;12.70;99.90;;;;;;5070659;28;20691;-50
2023/01/06 08:56:01;;;;;;;6.93;5.37;;;12.80;99.90;;;;;;5070643;28;20207;-48
2023/01/06 08:58:27;;;;;;;7.83;5.43;;;12.80;99.90;;;;;;5072197;28;20179;-49
2023/01/06 09:00:53;;;;;;;9.47;5.93;;;12.80;99.90;;;;;;5068679;28;20259;-49
2023/01/06 09:03:18;;;;;;;7.83;6.00;;;12.80;99.90;;;;;;5067584;28;20652;-48
2023/01/06 09:05:52;;;;;;;8.73;6.00;;;12.80;99.90;;;;;;5065678;28;20195;-49
2023/01/06 09:08:18;;;;;;;8.43;6.47;;;12.80;99.90;;;;;;5075766;28;20261;-49
2023/01/06 09:10:43;;;;;;;7.57;5.67;;;11.00;99.90;;;;;;5069548;28;20727;-49
2023/01/06 09:13:09;;;;;;;7.50;5.17;;;13.30;99.90;;;;;;5069107;28;20225;-49
2023/01/06 09:15:39;;;;;;;6.90;4.77;;;14.10;99.90;;;;;;5071788;28;20292;-48
2023/01/06 09:18:07;;;;;;;6.10;4.70;;;15.00;99.90;;;;;;5072128;28;20648;-47
2023/01/06 09:20:33;;;;;;;7.43;4.60;;;16.00;99.90;;;;;;5073679;28;20175;-50
2023/01/06 09:22:58;;;;;;;4.80;3.37;;;17.10;99.90;;;;;;5071575;28;20185;-51
2023/01/06 09:25:24;;;;;;;3.60;3.30;;;18.30;99.90;;;;;;5074964;28;20252;-49
2023/01/06 09:27:50;;;;;;;5.53;3.80;;;18.60;99.90;;;;;;5072707;28;20179;-49
2023/01/06 09:30:15;;;;;;;4.20;3.80;;;18.40;99.90;;;;;;5072983;28;20581;-49
2023/01/06 09:32:41;;;;;;;4.67;3.80;;;17.90;99.90;;;;;;5072892;28;20260;-50
2023/01/06 09:35:07;;;;;;;5.83;4.30;;;17.50;99.90;;;;;;5072311;28;20569;-49
2023/01/06 09:37:33;;;;;;;4.27;3.80;;;16.80;99.90;;;;;;5072075;28;20163;-47
2023/01/06 09:39:59;;;;;;;5.83;4.33;;;16.30;99.90;;;;;;5072729;28;20266;-48
2023/01/06 09:42:42;;;;;;;6.23;4.73;;;15.90;99.90;;;;;;5071224;28;20170;-51
2023/01/06 09:45:32;;;;;;;5.23;4.73;;;15.50;99.90;;;;;;5071544;28;20309;-50
2023/01/06 09:48:01;;;;;;;5.80;4.10;;;15.20;99.90;;;;;;5070526;28;20254;-49
2023/01/06 09:50:36;;;;;;;5.07;4.10;;;15.10;99.90;;;;;;5072762;28;20174;-48
2023/01/06 09:53:12;;;;;;;5.57;4.70;;;15.00;99.90;;;;;;5070733;28;20651;-50
2023/01/06 09:55:42;;;;;;;5.30;4.77;;;15.70;99.90;;;;;;5070039;28;20190;-47
2023/01/06 09:58:14;;;;;;;5.97;4.10;;;16.50;99.90;;;;;;5072609;28;20707;-49
2023/01/06 10:00:42;;;;;;;6.13;4.80;;;17.30;99.90;;;;;;5070561;28;20202;-49
2023/01/06 10:03:19;;;;;;;4.67;4.13;;;17.60;99.90;;;;;;5072385;28;20763;-49
2023/01/06 10:06:03;;;;;;;6.30;5.07;;;17.60;99.90;;;;;;5071017;28;20227;-48
2023/01/06 10:08:42;;;;;;;4.90;4.37;;;17.40;99.90;;;;;;5073980;28;20179;-48
2023/01/06 10:11:38;;;;;;;5.60;4.93;;;17.40;99.90;;;;;;5070848;28;20535;-49
2023/01/06 10:14:22;;;;;;;5.07;4.57;;;17.60;99.90;;;;;;5070642;28;20206;-53
2023/01/06 10:17:46;;;;;;;5.20;4.33;;;18.60;99.90;;;;;;5074491;28;20173;-48
2023/01/06 10:20:46;;;;;;;4.80;4.05;;;20.10;99.90;;;;;;4992952;28;20184;-50
2023/01/06 10:23:20;;;;;;;3.72;3.05;;;22.20;99.90;;;;;;5002203;28;20184;-47
2023/01/06 10:25:52;;;;;;;7.22;4.00;;;24.00;99.90;;;;;;5004158;28;20224;-51
2023/01/06 10:28:29;;;;;;;4.65;3.30;;;25.30;96.30;;;;;;5002104;28;20185;-53
2023/01/06 10:30:58;;;;;;;3.65;3.22;;;26.20;94.20;;;;;;5010628;28;20287;-53
2023/01/06 10:33:36;;;;;;;3.85;3.47;;;26.70;92.30;;;;;;5244071;22;20232;-51
2023/01/06 10:36:02;;;;;;;4.03;3.60;;;26.90;91.50;;;;;;5414859;22;20229;-53
2023/01/06 10:38:36;;;;;;;3.88;3.10;;;27.20;90.50;;;;;;5070455;28;20170;-55
2023/01/06 10:41:15;;;;;;;5.05;3.70;;;27.10;90.10;;;;;;5070864;28;20167;-51
2023/01/06 10:43:41;;;;;;;3.78;3.47;;;26.90;90.40;;;;;;5070695;28;20542;-50
2023/01/06 10:46:06;;;;;;;5.35;4.07;;;26.60;90.00;;;;;;5070603;28;20205;-54
2023/01/06 10:48:33;;;;;;;4.47;3.42;;;26.20;90.70;;;;;;5086340;22;20671;-54
2023/01/06 10:51:31;;;;;;;3.67;3.30;;;25.80;90.80;;;;;;5072512;28;20546;-53
2023/01/06 10:53:59;;;;;;;3.15;2.85;;;25.70;90.80;;;;;;5072208;28;20218;-55
2023/01/06 10:56:27;;;;;;;4.30;3.67;;;25.30;91.30;;;;;;5070960;28;20166;-55
2023/01/06 10:58:57;;;;;;;4.00;3.38;;;25.10;90.90;;;;;;5072318;28;20182;-56
2023/01/06 11:01:25;;;;;;;3.75;3.45;;;25.00;91.90;;;;;;5072442;28;20254;-55
2023/01/06 11:04:11;;;;;;;3.92;3.35;;;25.30;91.60;;;;;;5072114;28;20190;-55
2023/01/06 11:06:49;;;;;;;3.63;3.30;;;25.20;91.50;;;;;;5072247;28;20234;-51
2023/01/06 11:09:22;;;;;;;3.67;3.38;;;25.00;90.60;;;;;;5072237;28;20205;-53
2023/01/06 11:11:49;;;;;;;3.88;3.42;;;24.40;91.40;;;;;;5060981;28;20170;-55
2023/01/06 11:14:20;;;;;;;4.30;3.92;;;23.70;92.00;;;;;;5064068;28;20535;-53
2023/01/06 11:16:58;;;;;;;6.32;3.78;;;23.00;93.10;;;;;;5057496;28;20171;-53
2023/01/06 11:19:37;;;;;;;4.28;3.70;;;22.70;94.00;;;;;;5064984;28;20198;-49
2023/01/06 11:22:03;;;;;;;4.20;3.88;;;22.50;94.30;;;;;;5066612;28;20677;-52
2023/01/06 11:24:29;;;;;;;4.85;4.45;;;21.60;95.20;;;;;;5061565;28;20178;-49
2023/01/06 11:26:59;;;;;;;6.90;4.75;;;20.30;96.70;;;;;;5063607;28;20532;-52
2023/01/06 11:29:29;;;;;;;4.23;3.83;;;19.20;99.40;;;;;;5060749;28;20563;-56
2023/01/06 11:31:56;;;;;;;4.47;4.07;;;18.60;99.90;;;;;;5060208;28;20178;-52
2023/01/06 11:34:24;;;;;;;4.23;3.73;;;18.00;99.90;;;;;;5060064;28;20245;-52
2023/01/06 11:36:51;;;;;;;4.23;3.70;;;17.80;99.90;;;;;;5059712;28;20626;-54
2023/01/06 11:39:33;;;;;;;3.70;3.40;;;18.70;99.90;;;;;;5061832;28;20257;-53
2023/01/06 11:42:10;;;;;;;4.30;3.22;;;20.00;99.90;;;;;;5061792;28;20714;-53
2023/01/06 11:44:39;;;;;;;3.70;3.33;;;21.00;99.10;;;;;;5060940;28;20260;-55
2023/01/06 11:47:37;;;;;;;3.50;3.20;;;20.90;98.20;;;;;;5059524;28;20254;-53
2023/01/06 11:50:03;;;;;;;4.90;3.50;;;20.00;98.50;;;;;;5041613;28;20218;-52
2023/01/06 11:52:31;;;;;;;3.40;3.10;;;19.50;99.90;;;;;;5045010;28;20214;-55
2023/01/06 11:55:17;;;;;;;3.38;3.08;;;19.90;99.90;;;;;;5042920;28;20585;-55
2023/01/06 11:58:10;;;;;;;3.72;3.35;;;19.90;99.40;;;;;;5044863;28;20169;-55
2023/01/06 12:00:36;;;;;;;3.60;3.30;;;19.00;99.90;;;;;;5046981;28;20264;-51
2023/01/06 12:03:21;;;;;;;5.40;3.30;;;18.60;99.90;;;;;;5044190;28;20176;-53
2023/01/06 12:06:12;;;;;;;3.23;2.93;;;18.40;99.90;;;;;;5045005;28;20183;-52
2023/01/06 12:08:50;;;;;;;3.50;3.20;;;18.50;99.90;;;;;;5045194;28;20225;-52
2023/01/06 12:11:42;;;;;;;3.27;2.97;;;18.80;99.90;;;;;;5045834;28;20187;-53
2023/01/06 12:14:17;;;;;;;4.00;3.30;;;18.80;99.90;;;;;;5045119;28;20619;-55
2023/01/06 12:16:45;;;;;;;3.17;2.87;;;18.40;99.90;;;;;;5045084;28;20185;-54
2023/01/06 12:19:20;;;;;;;3.50;3.20;;;17.90;99.90;;;;;;5048307;28;20203;-53
2023/01/06 12:21:46;;;;;;;3.00;2.80;;;17.70;99.90;;;;;;5037479;28;20176;-54
2023/01/06 12:24:15;;;;;;;3.03;2.70;;;17.80;99.90;;;;;;5047672;28;20279;-52
2023/01/06 12:26:42;;;;;;;3.30;3.00;;;17.60;99.90;;;;;;5047335;28;20188;-53
2023/01/06 12:29:15;;;;;;;3.50;2.30;;;17.20;99.90;;;;;;5059158;28;20198;-52
2023/01/06 12:31:54;;;;;;;2.60;2.40;;;17.40;99.90;;;;;;5058243;28;20179;-52
2023/01/06 12:34:28;;;;;;;2.40;2.20;;;17.60;99.90;;;;;;5067007;28;20642;-51
2023/01/06 12:37:27;;;;;;;2.73;2.53;;;17.70;99.90;;;;;;5059586;28;20654;-51
2023/01/06 12:40:13;;;;;;;2.33;2.23;;;17.60;99.90;;;;;;5065285;28;20201;-55
2023/01/06 12:42:48;;;;;;;2.78;2.58;;;18.00;99.90;;;;;;5053853;28;20262;-52
2023/01/06 12:45:38;;;;;;;2.53;2.33;;;18.90;99.90;;;;;;5058433;28;20181;-50
2023/01/06 12:48:15;;;;;;;2.25;2.15;;;20.10;99.90;;;;;;5063767;28;20598;-52
2023/01/06 12:50:49;;;;;;;2.28;2.08;;;20.70;99.40;;;;;;5061535;28;20185;-52
2023/01/06 12:53:21;;;;;;;2.10;2.00;;;21.10;99.40;;;;;;5059714;28;20670;-52
2023/01/06 12:55:55;;;;;;;2.10;2.00;;;21.50;97.90;;;;;;5054026;28;20241;-55
2023/01/06 12:58:48;;;;;;;2.17;2.08;;;21.70;97.70;;;;;;5066780;28;20654;-51
2023/01/06 13:01:19;;;;;;;2.30;2.10;;;22.10;97.00;;;;;;5057501;28;20250;-52
2023/01/06 13:03:56;;;;;;;2.25;2.05;;;22.30;96.00;;;;;;5050436;28;20234;-55